createdAt,value
2023-02-14T00:01:27.581Z,58.70
2023-02-14T00:04:00.551Z,54.80
2023-02-14T00:06:28.963Z,53.90
2023-02-14T00:08:56.824Z,61.90
2023-02-14T00:11:26.384Z,65.00
2023-02-14T00:14:11.938Z,65.20
2023-02-14T00:16:39.852Z,65.20
2023-02-14T00:19:07.668Z,65.20
2023-02-14T00:21:37.229Z,65.30
2023-02-14T00:24:05.463Z,67.10
2023-02-14T00:26:34.630Z,65.20
2023-02-14T00:29:02.485Z,73.80
2023-02-14T00:31:30.313Z,76.90
2023-02-14T00:33:58.477Z,78.20
2023-02-14T00:36:26.649Z,71.40
2023-02-14T00:38:54.466Z,80.60
2023-02-14T00:41:22.558Z,82.30
2023-02-14T00:43:53.512Z,78.00
2023-02-14T00:46:23.029Z,86.80
2023-02-14T00:48:51.105Z,87.80
2023-02-14T00:51:19.585Z,89.70
2023-02-14T00:53:49.057Z,90.00
2023-02-14T00:56:18.084Z,90.80
2023-02-14T00:58:46.689Z,91.60
2023-02-14T05:02:15.612Z,94.70
2023-02-14T05:04:43.432Z,95.40
2023-02-14T05:07:11.220Z,99.90
2023-02-14T05:09:40.901Z,99.90
2023-02-14T05:12:08.813Z,99.90
2023-02-14T05:14:36.927Z,99.90
2023-02-14T05:17:04.730Z,99.90
2023-02-14T05:19:33.853Z,99.90
2023-02-14T05:22:01.643Z,99.90
2023-02-14T05:24:29.556Z,99.90
2023-02-14T05:26:57.296Z,99.90
2023-02-14T05:29:25.081Z,99.90
2023-02-14T05:31:52.976Z,99.90
2023-02-14T05:34:21.780Z,99.90
2023-02-14T05:36:51.163Z,99.90
2023-02-14T05:39:19.115Z,99.90
2023-02-14T05:41:46.919Z,99.90
2023-02-14T05:44:14.733Z,99.90
2023-02-14T05:46:42.668Z,99.90
2023-02-14T05:49:10.456Z,99.90
2023-02-14T05:51:38.297Z,99.90
2023-02-14T05:54:08.881Z,99.90
2023-02-14T05:56:38.434Z,99.90
2023-02-14T05:59:06.271Z,99.90
2023-02-14T06:01:34.040Z,99.90
2023-02-14T06:04:02.530Z,99.90
2023-02-14T06:06:30.463Z,99.90
2023-02-14T06:08:58.194Z,99.90
2023-02-14T06:11:27.394Z,99.90
2023-02-14T06:13:55.173Z,99.90
2023-02-14T06:16:22.936Z,99.90
2023-02-14T06:18:50.728Z,99.90
2023-02-14T06:21:18.481Z,99.90
2023-02-14T06:23:46.296Z,99.90
2023-02-14T06:26:14.299Z,99.90
2023-02-14T06:28:43.680Z,99.90
2023-02-14T06:31:17.274Z,99.90
2023-02-14T06:33:45.300Z,99.90
2023-02-14T06:36:13.473Z,99.90
2023-02-14T06:38:41.696Z,99.90
2023-02-14T06:41:11.479Z,99.90
2023-02-14T06:43:39.288Z,99.90
2023-02-14T06:46:08.437Z,99.90
2023-02-14T06:48:36.302Z,99.90
2023-02-14T06:51:04.401Z,99.90
2023-02-14T06:53:32.173Z,99.90
2023-02-14T06:56:00.008Z,99.90
2023-02-14T06:58:28.022Z,99.90
2023-02-14T07:00:57.862Z,99.90
2023-02-14T07:03:27.174Z,99.90
2023-02-14T07:05:55.048Z,99.90
2023-02-14T07:08:25.931Z,99.90
2023-02-14T07:10:57.046Z,99.90
2023-02-14T07:15:54.009Z,99.90
2023-02-14T07:18:21.927Z,99.90
2023-02-14T07:20:52.332Z,99.90
2023-02-14T07:23:20.181Z,99.90
2023-02-14T07:25:48.068Z,99.90
2023-02-14T07:28:15.871Z,99.90
2023-02-14T07:30:43.730Z,99.90
2023-02-14T07:33:12.199Z,99.90
2023-02-14T07:35:39.997Z,99.90
2023-02-14T07:38:09.157Z,99.90
2023-02-14T07:40:36.907Z,99.90
2023-02-14T07:45:40.607Z,99.90
2023-02-14T07:48:08.554Z,99.90
2023-02-14T07:50:36.284Z,99.90
2023-02-14T07:53:04.135Z,99.90
2023-02-14T07:55:33.232Z,99.90
2023-02-14T07:58:01.068Z,99.90
2023-02-14T08:00:29.292Z,99.90
2023-02-14T08:02:57.086Z,99.90
2023-02-14T08:05:24.985Z,99.90
2023-02-14T08:07:52.790Z,99.90
2023-02-14T08:10:20.746Z,99.90
2023-02-14T08:13:02.414Z,99.90
2023-02-14T08:15:49.588Z,99.90
2023-02-14T08:18:18.640Z,99.90
2023-02-14T08:20:46.683Z,99.90
2023-02-14T08:23:14.690Z,99.90
2023-02-14T08:25:42.541Z,99.90
2023-02-14T08:28:13.583Z,99.90
2023-02-14T08:30:42.502Z,99.90
2023-02-14T08:33:10.451Z,99.90
2023-02-14T08:35:41.145Z,99.90
2023-02-14T08:38:09.168Z,99.90
2023-02-14T08:40:37.411Z,99.90
2023-02-14T08:43:05.590Z,99.90
2023-02-14T08:45:35.222Z,99.90
2023-02-14T08:48:05.230Z,99.90
2023-02-14T08:50:33.505Z,99.90
2023-02-14T08:53:01.498Z,99.90
2023-02-14T08:55:29.242Z,99.90
2023-02-14T08:57:58.133Z,99.90
2023-02-14T09:00:26.158Z,99.90
2023-02-14T09:02:58.505Z,99.90
2023-02-14T09:05:27.275Z,99.90
2023-02-14T09:07:57.538Z,99.90
2023-02-14T09:10:25.837Z,99.90
2023-02-14T09:12:53.840Z,99.90
2023-02-14T09:15:21.705Z,99.90
2023-02-14T09:17:51.039Z,99.90
2023-02-14T09:20:20.986Z,99.90
2023-02-14T09:22:48.976Z,98.00
2023-02-14T09:25:17.295Z,99.90
2023-02-14T09:30:14.659Z,95.90
2023-02-14T09:32:42.690Z,96.30
2023-02-14T09:35:27.809Z,95.70
2023-02-14T09:37:58.166Z,99.40
2023-02-14T09:40:26.436Z,99.70
2023-02-14T09:43:03.817Z,94.80
2023-02-14T09:45:34.099Z,98.00
2023-02-14T09:48:07.748Z,93.90
2023-02-14T09:50:40.269Z,93.60
2023-02-14T09:53:21.570Z,97.20
2023-02-14T09:55:54.794Z,97.50
2023-02-14T09:58:27.882Z,98.10
2023-02-14T10:01:00.946Z,95.60
2023-02-14T10:03:48.980Z,97.20
2023-02-14T10:06:32.730Z,96.70
2023-02-14T10:17:08.977Z,88.40
2023-02-14T10:19:41.633Z,91.90
2023-02-14T10:22:15.059Z,97.20
2023-02-14T10:24:48.759Z,97.70
2023-02-14T10:27:30.626Z,99.90
2023-02-14T10:29:58.590Z,99.90
2023-02-14T10:32:36.392Z,99.90
2023-02-14T10:35:12.461Z,99.90
2023-02-14T10:37:54.139Z,99.90
2023-02-14T10:40:36.261Z,99.90
2023-02-14T10:43:12.052Z,99.90
2023-02-14T10:45:45.611Z,99.90
2023-02-14T10:48:26.107Z,98.20
2023-02-14T10:51:00.292Z,99.90
2023-02-14T10:53:37.360Z,99.90
2023-02-14T10:56:08.437Z,90.70
2023-02-14T10:58:40.272Z,94.30
2023-02-14T11:01:11.853Z,88.40
2023-02-14T11:03:48.186Z,92.20
2023-02-14T11:06:17.234Z,83.00
2023-02-14T11:08:45.109Z,90.40
2023-02-14T11:11:20.318Z,73.10
2023-02-14T11:13:48.961Z,72.80
2023-02-14T11:16:29.841Z,70.10
2023-02-14T11:19:15.637Z,76.80
2023-02-14T11:21:46.253Z,65.30
2023-02-14T11:24:26.172Z,72.00
2023-02-14T11:26:56.908Z,64.50
2023-02-14T11:29:29.845Z,64.80
2023-02-14T11:32:06.876Z,70.80
2023-02-14T11:34:39.905Z,68.00
2023-02-14T11:37:19.949Z,58.50
2023-02-14T11:39:47.754Z,57.80
2023-02-14T11:42:15.563Z,65.20
2023-02-14T11:44:58.407Z,65.30
2023-02-14T11:47:29.048Z,57.40
2023-02-14T11:50:00.968Z,65.40
2023-02-14T11:52:29.915Z,65.20
2023-02-14T11:54:58.759Z,65.20
2023-02-14T11:57:32.469Z,54.30
2023-02-14T12:00:04.712Z,58.90
2023-02-14T12:02:37.994Z,50.20
2023-02-14T12:05:18.652Z,56.20
2023-02-14T12:07:48.647Z,46.60
2023-02-14T12:10:26.271Z,50.80
2023-02-14T12:12:57.886Z,41.40
2023-02-14T12:15:36.787Z,41.10
2023-02-14T12:18:37.888Z,48.40
2023-02-14T12:21:26.831Z,35.70
2023-02-14T12:24:04.356Z,44.00
2023-02-14T12:26:36.034Z,48.30
2023-02-14T12:29:13.557Z,34.20
2023-02-14T12:31:43.607Z,25.70
2023-02-14T12:34:12.941Z,24.70
2023-02-14T12:37:00.283Z,30.90
2023-02-14T12:39:36.603Z,30.30
2023-02-14T12:42:14.592Z,25.20
2023-02-14T12:44:51.917Z,30.90
2023-02-14T12:47:27.369Z,33.10
2023-02-14T12:50:28.961Z,34.20
2023-02-14T12:53:23.977Z,26.20
2023-02-14T12:56:01.152Z,31.10
2023-02-14T12:58:43.655Z,30.50
2023-02-14T13:01:53.853Z,22.50
2023-02-14T13:04:57.771Z,28.30
2023-02-14T13:07:44.701Z,26.60
2023-02-14T13:10:22.139Z,20.70
2023-02-14T13:12:55.389Z,21.50
2023-02-14T13:15:35.509Z,26.70
2023-02-14T13:18:13.385Z,18.30
2023-02-14T13:20:49.686Z,21.40
2023-02-14T13:23:21.685Z,13.40
2023-02-14T13:25:56.080Z,13.60
2023-02-14T13:28:25.495Z,19.60
2023-02-14T13:30:54.496Z,15.20
2023-02-14T13:33:34.963Z,16.10
2023-02-14T13:36:07.860Z,16.20
2023-02-14T13:38:41.532Z,22.10
2023-02-14T13:41:11.438Z,16.40
2023-02-14T13:43:56.138Z,15.00
2023-02-14T13:46:49.318Z,14.00
2023-02-14T13:49:32.826Z,15.40
2023-02-14T13:52:03.602Z,15.00
2023-02-14T13:54:35.786Z,14.20
2023-02-14T13:57:27.983Z,19.40
2023-02-14T14:00:36.631Z,12.40
2023-02-14T14:03:05.539Z,11.80
2023-02-14T14:05:48.551Z,10.10
2023-02-14T14:08:39.685Z,16.20
2023-02-14T14:11:13.178Z,7.30
2023-02-14T14:13:59.916Z,6.80
2023-02-14T14:16:31.240Z,7.00
2023-02-14T14:19:01.637Z,5.00
2023-02-14T14:21:30.912Z,2.90
2023-02-14T14:24:18.745Z,7.60
2023-02-14T14:26:48.537Z,1.00
2023-02-14T14:29:22.473Z,1.00
2023-02-14T14:31:55.710Z,1.00
2023-02-14T14:34:26.133Z,1.00
2023-02-14T14:37:03.940Z,1.00
2023-02-14T14:39:34.631Z,5.40
2023-02-14T14:42:14.550Z,1.00
2023-02-14T14:44:49.390Z,4.10
2023-02-14T14:47:20.701Z,1.00
2023-02-14T14:49:49.727Z,2.70
2023-02-14T14:52:37.801Z,1.00
2023-02-14T14:55:08.269Z,2.90
2023-02-14T14:57:37.779Z,4.00
2023-02-14T15:00:24.221Z,1.00
2023-02-14T15:03:00.349Z,1.00
2023-02-14T15:05:32.034Z,1.00
2023-02-14T15:08:13.427Z,1.00
2023-02-14T15:10:41.545Z,2.30
2023-02-14T15:13:32.056Z,1.00
2023-02-14T15:16:03.862Z,1.00
2023-02-14T15:18:31.961Z,1.00
2023-02-14T15:21:01.252Z,1.00
2023-02-14T15:23:29.378Z,1.00
2023-02-14T15:25:57.237Z,1.00
2023-02-14T15:28:29.159Z,1.00
2023-02-14T15:30:59.969Z,1.00
2023-02-14T15:33:31.056Z,1.00
2023-02-14T15:36:03.191Z,1.00
2023-02-14T15:38:33.790Z,10.80
2023-02-14T15:41:02.637Z,1.00
2023-02-14T15:43:33.600Z,1.00
2023-02-14T15:46:15.311Z,1.00
2023-02-14T15:48:46.418Z,1.00
2023-02-14T15:51:21.735Z,1.40
2023-02-14T15:53:53.398Z,1.00
2023-02-14T15:56:24.965Z,1.00
2023-02-14T15:59:02.067Z,2.60
2023-02-14T16:01:31.241Z,1.00
2023-02-14T16:04:03.999Z,1.00
2023-02-14T16:06:35.343Z,1.00
2023-02-14T16:09:04.654Z,1.00
2023-02-14T16:11:37.036Z,1.00
2023-02-14T16:14:31.764Z,1.00
2023-02-14T16:17:04.913Z,1.00
2023-02-14T16:19:37.335Z,1.00
2023-02-14T16:22:06.969Z,1.00
2023-02-14T16:24:35.896Z,1.00
2023-02-14T16:27:06.956Z,1.00
2023-02-14T16:29:36.320Z,1.00
2023-02-14T16:32:16.534Z,1.00
2023-02-14T16:34:48.156Z,1.00
2023-02-14T16:37:22.334Z,1.00
2023-02-14T16:39:51.342Z,1.00
2023-02-14T16:42:19.981Z,1.00
2023-02-14T16:47:18.553Z,1.00
2023-02-14T16:49:48.654Z,3.60
2023-02-14T16:52:19.218Z,5.70
2023-02-14T16:54:47.076Z,13.20
2023-02-14T16:57:19.768Z,17.00
2023-02-14T16:59:47.977Z,21.30
2023-02-14T17:04:47.638Z,30.50
2023-02-14T17:07:16.884Z,37.30
2023-02-14T17:09:49.032Z,41.20
2023-02-14T17:12:21.868Z,43.00
2023-02-14T17:14:52.555Z,52.40
2023-02-14T17:17:21.197Z,55.00
2023-02-14T17:19:52.708Z,56.80
2023-02-14T17:22:21.397Z,56.90
2023-02-14T17:24:49.240Z,68.60
2023-02-14T17:27:17.136Z,76.00
2023-02-14T17:29:44.929Z,82.30
2023-02-14T17:32:13.616Z,84.20
2023-02-14T17:34:41.753Z,87.50
2023-02-14T17:37:10.997Z,93.60
2023-02-14T17:39:38.821Z,95.70
2023-02-14T17:42:07.181Z,96.00
2023-02-14T17:44:35.911Z,99.90
2023-02-14T17:47:03.999Z,99.90
2023-02-14T17:49:31.942Z,99.90
2023-02-14T17:51:59.847Z,99.90
2023-02-14T17:54:29.228Z,99.90
2023-02-14T17:56:57.086Z,99.90
2023-02-14T18:01:53.796Z,99.90
2023-02-14T18:04:21.748Z,99.90
2023-02-14T18:06:49.628Z,99.90
2023-02-14T18:09:19.272Z,99.90
2023-02-14T18:11:49.969Z,99.90
2023-02-14T18:14:17.684Z,99.90
2023-02-14T18:16:46.148Z,99.90
2023-02-14T18:19:16.499Z,99.90
2023-02-14T18:21:46.148Z,99.90
2023-02-14T18:24:15.480Z,99.90
2023-02-14T18:26:44.436Z,99.90
2023-02-14T18:29:14.968Z,99.90
2023-02-14T18:31:46.588Z,99.90
2023-02-14T18:34:14.485Z,99.90
2023-02-14T18:36:42.992Z,99.90
2023-02-14T18:39:11.796Z,99.90
2023-02-14T18:41:39.738Z,99.90
2023-02-14T18:44:12.267Z,99.90
2023-02-14T18:46:41.399Z,99.90
2023-02-14T18:49:13.193Z,99.90
2023-02-14T18:51:41.162Z,99.90
2023-02-14T18:54:09.324Z,99.90
2023-02-14T18:56:38.601Z,99.90
2023-02-14T18:59:09.417Z,99.90
2023-02-14T19:01:42.966Z,99.90
2023-02-14T19:04:13.310Z,99.90
2023-02-14T19:06:42.383Z,99.90
2023-02-14T19:09:12.648Z,99.90
2023-02-14T19:11:41.351Z,99.90
2023-02-14T19:14:10.837Z,99.90
2023-02-14T19:16:41.795Z,99.90
2023-02-14T19:19:09.685Z,99.90
2023-02-14T19:21:39.126Z,99.90
2023-02-14T19:24:08.182Z,99.90
2023-02-14T19:26:40.042Z,99.90
2023-02-14T19:29:10.521Z,99.90
2023-02-14T19:31:40.584Z,99.90
2023-02-14T19:34:09.845Z,99.90
2023-02-14T19:36:39.012Z,99.90
2023-02-14T19:39:06.775Z,99.90
2023-02-14T19:44:05.752Z,99.90
2023-02-14T19:46:34.604Z,99.90
2023-02-14T19:49:04.200Z,99.90
2023-02-14T19:54:05.496Z,99.90
2023-02-14T19:56:36.412Z,99.90
2023-02-14T19:59:08.959Z,99.90
2023-02-14T20:01:39.529Z,99.90
2023-02-14T20:04:10.027Z,99.90
2023-02-14T20:06:39.065Z,99.90
2023-02-14T20:09:08.749Z,99.90
2023-02-14T20:11:39.291Z,99.90
2023-02-14T20:14:09.054Z,99.90
2023-02-14T20:16:38.117Z,99.90
2023-02-14T20:19:08.476Z,99.90
2023-02-14T20:21:36.485Z,99.90
2023-02-14T20:24:06.112Z,99.90
2023-02-14T20:26:37.082Z,99.90
2023-02-14T20:31:35.076Z,99.90
2023-02-14T20:34:03.222Z,99.90
2023-02-14T20:36:31.804Z,99.90
2023-02-14T20:39:01.327Z,99.90
2023-02-14T20:41:30.393Z,99.90
2023-02-14T20:46:33.041Z,99.90
2023-02-14T20:49:01.168Z,99.90
2023-02-14T20:51:29.144Z,99.90
2023-02-14T20:53:56.948Z,99.90
2023-02-14T20:56:25.278Z,99.90
2023-02-14T20:58:53.252Z,99.90
2023-02-14T21:01:24.242Z,99.90
2023-02-14T21:03:54.024Z,99.90
2023-02-14T21:06:24.626Z,99.90
2023-02-14T21:08:53.052Z,99.90
2023-02-14T21:11:24.112Z,99.90
2023-02-14T21:13:54.854Z,99.90
2023-02-14T21:16:24.438Z,99.90
2023-02-14T21:18:58.722Z,99.90
2023-02-14T21:21:34.873Z,99.90
2023-02-14T21:24:04.798Z,99.90
2023-02-14T21:26:32.748Z,99.90
2023-02-14T21:29:00.584Z,99.90
2023-02-14T21:33:59.457Z,99.90
2023-02-14T21:36:29.571Z,99.90
2023-02-14T21:38:58.863Z,99.90
2023-02-14T21:41:28.405Z,99.90
2023-02-14T21:43:57.314Z,99.90
2023-02-14T21:46:27.334Z,99.90
2023-02-14T21:49:15.316Z,99.90
2023-02-14T21:51:43.754Z,99.90
2023-02-14T21:54:12.117Z,99.90
2023-02-14T21:56:41.158Z,99.90
2023-02-14T21:59:09.945Z,99.90
2023-02-14T22:01:40.208Z,99.90
2023-02-14T22:04:11.741Z,99.90
2023-02-14T22:06:42.121Z,99.90
2023-02-14T22:09:10.951Z,99.90
2023-02-14T22:11:39.203Z,99.90
2023-02-14T22:14:06.983Z,99.90
2023-02-14T22:16:36.647Z,99.90
2023-02-14T22:19:05.151Z,99.90
2023-02-14T22:24:02.630Z,99.90
2023-02-14T22:26:33.632Z,99.90
2023-02-14T22:29:02.998Z,99.90
2023-02-14T22:31:37.868Z,99.90
2023-02-14T22:34:06.373Z,99.90
2023-02-14T22:36:35.895Z,99.90
2023-02-14T22:39:04.292Z,99.90
2023-02-14T22:41:32.129Z,99.90
2023-02-14T22:43:59.900Z,99.90
2023-02-14T22:46:29.067Z,99.90
2023-02-14T22:48:57.959Z,99.90
2023-02-14T22:51:28.150Z,99.90
2023-02-14T22:54:00.180Z,99.90
2023-02-14T22:56:30.914Z,99.90
2023-02-14T22:59:00.794Z,99.90
2023-02-14T23:01:29.272Z,99.90
2023-02-14T23:03:58.882Z,99.90
2023-02-14T23:06:28.243Z,99.90
2023-02-14T23:08:57.910Z,99.90
2023-02-14T23:11:28.396Z,99.90
2023-02-14T23:14:14.524Z,99.90
2023-02-14T23:17:00.827Z,99.90
2023-02-14T23:19:48.258Z,99.90
2023-02-14T23:22:19.433Z,99.90
2023-02-14T23:24:49.643Z,99.90
2023-02-14T23:27:19.171Z,99.90
2023-02-14T23:29:46.997Z,99.90
2023-02-14T23:32:15.167Z,99.90
2023-02-14T23:34:45.772Z,99.90
2023-02-14T23:37:14.549Z,99.90
2023-02-14T23:39:42.936Z,99.90
2023-02-14T23:42:14.732Z,99.90
2023-02-14T23:44:43.627Z,99.90
2023-02-14T23:47:12.376Z,99.90
2023-02-14T23:49:41.456Z,99.90
2023-02-14T23:52:13.814Z,99.90
2023-02-14T23:54:41.993Z,99.90
2023-02-14T23:57:10.344Z,99.90
2023-02-14T23:59:39.428Z,99.90
